Time;durP1;ratioP1;P1;durP2;ratioP2;P2;SDS_P1;SDS_P2;PMS_P1;PMS_P2;Temp;Humidity;BMP_temperature;BMP_pressure;BME280_temperature;BME280_humidity;BME280_pressure;Samples;Min_cycle;Max_cycle;Signal;HPM_P1;HPM_P2
2023/08/05 00:00:56;;;;;;;0.10;0.10;;;14.20;99.90;;;;;;5040134;28;20490;-93
2023/08/05 00:03:22;;;;;;;0.10;0.10;;;14.30;99.90;;;;;;5045527;28;20441;-94
2023/08/05 00:05:47;;;;;;;0.10;0.10;;;14.20;99.90;;;;;;5043653;28;20457;-95
2023/08/05 00:08:13;;;;;;;0.10;0.10;;;14.30;99.90;;;;;;5044331;28;20305;-94
2023/08/05 00:10:45;;;;;;;0.10;0.10;;;14.40;99.90;;;;;;5052868;28;20194;-94
2023/08/05 00:13:11;;;;;;;0.10;0.10;;;14.40;99.90;;;;;;5038139;28;20266;-94
2023/08/05 00:15:36;;;;;;;0.10;0.10;;;14.30;99.90;;;;;;5044197;28;20443;-95
2023/08/05 00:18:02;;;;;;;0.10;0.10;;;14.30;99.90;;;;;;5075392;28;20447;-93
2023/08/05 00:20:27;;;;;;;0.10;0.10;;;14.30;99.90;;;;;;5039574;28;20179;-94
2023/08/05 00:22:53;;;;;;;0.10;0.10;;;14.40;99.90;;;;;;5044584;28;20667;-93
2023/08/05 00:25:18;;;;;;;0.10;0.10;;;14.40;99.90;;;;;;5045052;28;20654;-94
2023/08/05 00:27:44;;;;;;;0.10;0.10;;;14.30;99.90;;;;;;5067139;28;20222;-93
2023/08/05 00:30:10;;;;;;;0.10;0.10;;;14.20;99.90;;;;;;5048756;28;20190;-94
2023/08/05 00:32:36;;;;;;;0.10;0.10;;;14.30;99.90;;;;;;5047675;28;20195;-94
2023/08/05 00:35:06;;;;;;;0.10;0.10;;;14.20;99.90;;;;;;5046001;28;20445;-93
2023/08/05 00:37:33;;;;;;;0.10;0.10;;;14.10;99.90;;;;;;5046471;28;20830;-92
2023/08/05 00:40:00;;;;;;;0.10;0.10;;;14.00;99.90;;;;;;5045655;28;20444;-95
2023/08/05 00:42:28;;;;;;;0.10;0.10;;;13.80;99.90;;;;;;5042868;28;20426;-94
2023/08/05 00:44:54;;;;;;;0.10;0.10;;;13.70;99.90;;;;;;5062844;28;20510;-94
2023/08/05 00:47:20;;;;;;;0.10;0.10;;;13.60;99.90;;;;;;5044034;28;20568;-94
2023/08/05 00:49:49;;;;;;;0.10;0.10;;;13.70;99.90;;;;;;5045972;28;20527;-94
2023/08/05 00:52:16;;;;;;;0.10;0.10;;;13.60;99.90;;;;;;5046338;28;20516;-92
2023/08/05 00:54:42;;;;;;;0.10;0.10;;;13.50;99.90;;;;;;5040765;28;20444;-94
2023/08/05 00:57:10;;;;;;;0.10;0.10;;;13.50;99.90;;;;;;5047035;28;20814;-94
2023/08/05 00:59:35;;;;;;;0.10;0.10;;;13.40;99.90;;;;;;5042694;28;20441;-93
2023/08/05 01:02:01;;;;;;;0.10;0.10;;;13.40;99.90;;;;;;5040230;28;20492;-93
2023/08/05 01:04:27;;;;;;;0.10;0.10;;;13.50;99.90;;;;;;5057132;28;20252;-93
2023/08/05 01:06:53;;;;;;;0.10;0.10;;;13.50;99.90;;;;;;5059647;28;20198;-94
2023/08/05 01:09:19;;;;;;;0.10;0.10;;;13.50;99.90;;;;;;5044992;28;20198;-94
2023/08/05 01:11:45;;;;;;;0.10;0.10;;;13.40;99.90;;;;;;5056645;28;20440;-94
2023/08/05 01:14:11;;;;;;;0.10;0.10;;;13.30;99.90;;;;;;5057551;28;20480;-93
2023/08/05 01:16:36;;;;;;;0.10;0.10;;;13.30;99.90;;;;;;5067768;28;20194;-93
2023/08/05 01:19:07;;;;;;;0.10;0.10;;;13.40;99.90;;;;;;5038950;28;20191;-94
2023/08/05 01:21:57;;;;;;;0.10;0.10;;;13.30;99.90;;;;;;5041114;28;20175;-93
2023/08/05 01:24:37;;;;;;;0.10;0.10;;;13.20;99.90;;;;;;5048851;28;20452;-94
2023/08/05 01:27:03;;;;;;;0.10;0.10;;;13.40;99.90;;;;;;5067709;28;20529;-94
2023/08/05 01:29:29;;;;;;;0.10;0.10;;;13.50;99.90;;;;;;5047671;28;20530;-94
2023/08/05 01:31:56;;;;;;;0.10;0.10;;;13.50;99.90;;;;;;5047533;28;20491;-94
2023/08/05 01:34:22;;;;;;;0.10;0.10;;;13.40;99.90;;;;;;5036449;28;20713;-93
2023/08/05 01:36:47;;;;;;;0.10;0.10;;;13.40;99.90;;;;;;5043954;28;20433;-94
2023/08/05 01:39:13;;;;;;;0.10;0.10;;;13.50;99.90;;;;;;5052732;28;20639;-94
2023/08/05 01:41:38;;;;;;;0.10;0.10;;;13.50;99.90;;;;;;5036727;28;20198;-93
2023/08/05 01:44:04;;;;;;;0.10;0.10;;;13.50;99.90;;;;;;5044251;28;20414;-92
2023/08/05 01:46:29;;;;;;;0.10;0.10;;;13.60;99.90;;;;;;5044745;28;20187;-93
2023/08/05 01:48:55;;;;;;;0.10;0.10;;;13.70;99.90;;;;;;5049715;28;20214;-93
2023/08/05 01:51:20;;;;;;;0.10;0.10;;;13.70;99.90;;;;;;5049559;28;20191;-94
2023/08/05 01:53:46;;;;;;;0.17;0.17;;;13.70;99.90;;;;;;5058697;28;20191;-94
2023/08/05 01:56:11;;;;;;;0.10;0.10;;;13.80;99.90;;;;;;5045408;28;20187;-94
2023/08/05 01:58:37;;;;;;;0.10;0.10;;;13.90;99.90;;;;;;5066655;28;20217;-94
2023/08/05 02:01:02;;;;;;;0.10;0.10;;;13.90;99.90;;;;;;5050678;28;20266;-94
2023/08/05 02:03:28;;;;;;;0.10;0.10;;;13.90;99.90;;;;;;5054301;28;20567;-93
2023/08/05 02:05:53;;;;;;;0.10;0.10;;;13.90;99.90;;;;;;5050852;28;20179;-93
2023/08/05 02:08:19;;;;;;;0.10;0.10;;;13.80;99.90;;;;;;5052102;28;20432;-93
2023/08/05 02:10:44;;;;;;;0.10;0.10;;;13.90;99.90;;;;;;5055072;28;20877;-94
2023/08/05 02:13:10;;;;;;;0.10;0.10;;;14.00;99.90;;;;;;5056276;28;20186;-93
2023/08/05 02:15:35;;;;;;;0.10;0.10;;;14.00;99.90;;;;;;5042590;28;20195;-92
2023/08/05 02:18:02;;;;;;;0.10;0.10;;;13.90;99.90;;;;;;5044372;28;20195;-93
2023/08/05 02:20:27;;;;;;;0.10;0.10;;;14.00;99.90;;;;;;5075978;28;20277;-92
2023/08/05 02:22:53;;;;;;;0.10;0.10;;;14.00;99.90;;;;;;5040555;28;20465;-94
2023/08/05 02:25:18;;;;;;;0.10;0.10;;;14.10;99.90;;;;;;5043509;28;20239;-93
2023/08/05 02:27:44;;;;;;;0.10;0.10;;;14.10;99.90;;;;;;5046846;28;20218;-93
2023/08/05 02:30:09;;;;;;;0.10;0.10;;;13.90;99.90;;;;;;5047875;28;20187;-93
2023/08/05 02:32:35;;;;;;;0.10;0.10;;;14.10;99.90;;;;;;5055299;28;20278;-94
2023/08/05 02:35:00;;;;;;;0.10;0.10;;;14.00;99.90;;;;;;5054666;28;20187;-94
2023/08/05 02:37:26;;;;;;;0.10;0.10;;;14.10;99.90;;;;;;5051824;28;20186;-95
2023/08/05 02:39:51;;;;;;;0.10;0.10;;;14.10;99.90;;;;;;5053131;28;20652;-93
2023/08/05 02:42:17;;;;;;;0.10;0.10;;;14.20;99.90;;;;;;5053336;28;20179;-94
2023/08/05 02:44:42;;;;;;;0.10;0.10;;;14.20;99.90;;;;;;5053490;28;20190;-94
2023/08/05 02:47:08;;;;;;;0.10;0.10;;;14.20;99.90;;;;;;5046732;28;20238;-95
2023/08/05 02:49:34;;;;;;;0.10;0.10;;;14.10;99.90;;;;;;5039643;28;20191;-94
2023/08/05 02:51:59;;;;;;;0.10;0.10;;;14.20;99.90;;;;;;5049120;28;20198;-94
2023/08/05 02:54:25;;;;;;;0.10;0.10;;;14.20;99.90;;;;;;5054784;28;20201;-92
2023/08/05 02:56:50;;;;;;;0.10;0.10;;;14.20;99.90;;;;;;5043964;28;20209;-94
2023/08/05 02:59:16;;;;;;;0.10;0.10;;;14.20;99.90;;;;;;5042300;28;20178;-94
2023/08/05 03:01:43;;;;;;;0.10;0.10;;;14.20;99.90;;;;;;5045618;28;20214;-94
2023/08/05 03:04:08;;;;;;;0.10;0.10;;;14.10;99.90;;;;;;5046254;28;20275;-94
2023/08/05 03:06:34;;;;;;;0.10;0.10;;;14.10;99.90;;;;;;5048704;28;20888;-94
2023/08/05 03:09:00;;;;;;;0.10;0.10;;;14.10;99.90;;;;;;5054030;28;20688;-95
2023/08/05 03:11:28;;;;;;;0.10;0.10;;;14.20;99.90;;;;;;5038997;28;21131;-93
2023/08/05 03:13:54;;;;;;;0.10;0.10;;;14.20;99.90;;;;;;5047000;28;20446;-94
2023/08/05 03:16:19;;;;;;;0.10;0.10;;;14.30;99.90;;;;;;5048796;28;20441;-94
2023/08/05 03:18:45;;;;;;;0.10;0.10;;;14.30;99.90;;;;;;5053223;28;20194;-92
2023/08/05 03:21:10;;;;;;;0.10;0.10;;;14.30;99.90;;;;;;5047699;28;20801;-94
2023/08/05 03:23:36;;;;;;;0.10;0.10;;;14.30;99.90;;;;;;5050600;28;20643;-94
2023/08/05 03:26:01;;;;;;;0.10;0.10;;;14.30;99.90;;;;;;5048346;28;20196;-94
2023/08/05 03:28:27;;;;;;;0.10;0.10;;;14.20;99.90;;;;;;5048949;28;20274;-93
2023/08/05 03:30:52;;;;;;;0.10;0.10;;;14.20;99.90;;;;;;5045446;28;20175;-92
2023/08/05 03:33:18;;;;;;;0.10;0.10;;;14.30;99.90;;;;;;5048718;28;21004;-93
2023/08/05 03:35:44;;;;;;;0.10;0.10;;;14.20;99.90;;;;;;5068772;28;20199;-94
2023/08/05 03:38:09;;;;;;;0.10;0.10;;;14.20;99.90;;;;;;5052387;28;20179;-94
2023/08/05 03:40:35;;;;;;;0.10;0.10;;;14.20;99.90;;;;;;5064580;28;20442;-93
2023/08/05 03:43:02;;;;;;;0.10;0.10;;;14.20;99.90;;;;;;5053786;28;20178;-94
2023/08/05 03:45:28;;;;;;;0.10;0.10;;;14.20;99.90;;;;;;5043536;28;20827;-94
2023/08/05 03:47:55;;;;;;;0.10;0.10;;;14.20;99.90;;;;;;5052633;28;20476;-94
2023/08/05 03:50:20;;;;;;;0.10;0.10;;;14.20;99.90;;;;;;5063849;28;20179;-93
2023/08/05 03:52:49;;;;;;;0.10;0.10;;;14.20;99.90;;;;;;5040801;28;20792;-94
2023/08/05 03:55:16;;;;;;;0.10;0.10;;;14.20;99.90;;;;;;5068626;28;20531;-93
2023/08/05 03:57:42;;;;;;;0.10;0.10;;;14.30;99.90;;;;;;5043366;28;20441;-94
2023/08/05 04:00:11;;;;;;;0.10;0.10;;;14.30;99.90;;;;;;5042361;28;20499;-93
2023/08/05 04:02:37;;;;;;;0.10;0.10;;;14.20;99.90;;;;;;5032900;28;21041;-94
2023/08/05 04:05:04;;;;;;;0.10;0.10;;;14.20;99.90;;;;;;5038342;28;20489;-94
2023/08/05 04:07:33;;;;;;;0.10;0.10;;;14.20;99.90;;;;;;5039383;28;20714;-93
2023/08/05 04:09:59;;;;;;;0.10;0.10;;;14.30;99.90;;;;;;5035606;28;20521;-93
2023/08/05 04:12:25;;;;;;;0.10;0.10;;;14.30;99.90;;;;;;5060285;28;20445;-93
2023/08/05 04:14:52;;;;;;;0.10;0.10;;;14.30;99.90;;;;;;5060114;28;20452;-93
2023/08/05 04:17:19;;;;;;;0.10;0.10;;;14.30;99.90;;;;;;5036278;28;20265;-91
2023/08/05 04:19:46;;;;;;;0.10;0.10;;;14.30;99.90;;;;;;5068396;28;21563;-92
2023/08/05 04:22:12;;;;;;;0.10;0.10;;;14.30;99.90;;;;;;5046447;28;20529;-93
2023/08/05 04:24:39;;;;;;;0.10;0.10;;;14.30;99.90;;;;;;5048987;28;20465;-94
2023/08/05 04:27:04;;;;;;;0.10;0.10;;;14.30;99.90;;;;;;5040206;28;20450;-94
2023/08/05 04:29:30;;;;;;;0.10;0.10;;;14.40;99.90;;;;;;5063515;28;20471;-92
2023/08/05 04:31:56;;;;;;;0.10;0.10;;;14.40;99.90;;;;;;5049813;28;20183;-94
2023/08/05 04:34:21;;;;;;;0.10;0.10;;;14.40;99.90;;;;;;5058559;28;20195;-93
2023/08/05 04:36:49;;;;;;;0.10;0.10;;;14.40;99.90;;;;;;5041662;28;21096;-93
2023/08/05 04:39:15;;;;;;;0.10;0.10;;;14.50;99.90;;;;;;5049883;28;20191;-92
2023/08/05 04:41:41;;;;;;;0.10;0.10;;;14.40;99.90;;;;;;5041029;28;20532;-93
2023/08/05 04:44:06;;;;;;;0.10;0.10;;;14.30;99.90;;;;;;5045876;28;20183;-93
2023/08/05 04:46:32;;;;;;;0.10;0.10;;;14.30;99.90;;;;;;5042794;28;20667;-92
2023/08/05 04:48:57;;;;;;;0.10;0.10;;;14.30;99.90;;;;;;5038942;28;20212;-93
2023/08/05 04:51:23;;;;;;;0.10;0.10;;;14.40;99.90;;;;;;5041659;28;20218;-93
2023/08/05 04:53:49;;;;;;;0.10;0.10;;;14.40;99.90;;;;;;5043846;28;20194;-93
2023/08/05 04:56:14;;;;;;;0.10;0.10;;;14.30;99.90;;;;;;5044147;28;20195;-92
2023/08/05 04:58:40;;;;;;;0.10;0.10;;;14.30;99.90;;;;;;5046683;28;20187;-94
2023/08/05 05:01:05;;;;;;;0.10;0.10;;;14.10;99.90;;;;;;5049415;28;20238;-93
2023/08/05 05:03:31;;;;;;;0.10;0.10;;;14.00;99.90;;;;;;5046283;28;20268;-93
2023/08/05 05:05:56;;;;;;;0.10;0.10;;;14.00;99.90;;;;;;5043144;28;20190;-93
2023/08/05 05:08:23;;;;;;;0.10;0.10;;;14.00;99.90;;;;;;5058210;28;20219;-93
2023/08/05 05:10:48;;;;;;;0.10;0.10;;;14.00;99.90;;;;;;5063155;28;20658;-94
2023/08/05 05:13:14;;;;;;;0.10;0.10;;;14.00;99.90;;;;;;5052070;28;20532;-94
2023/08/05 05:15:40;;;;;;;0.10;0.10;;;14.00;99.90;;;;;;5066829;28;20183;-92
2023/08/05 05:18:05;;;;;;;0.10;0.10;;;14.10;99.90;;;;;;5048964;28;20208;-94
2023/08/05 05:20:31;;;;;;;0.10;0.10;;;14.20;99.90;;;;;;5033087;28;20206;-93
2023/08/05 05:22:56;;;;;;;0.10;0.10;;;14.30;99.90;;;;;;5048813;28;20198;-94
2023/08/05 05:25:22;;;;;;;0.10;0.10;;;14.40;99.90;;;;;;5038276;28;20194;-93
2023/08/05 05:27:48;;;;;;;0.10;0.10;;;14.40;99.90;;;;;;5043590;28;20220;-95
2023/08/05 05:30:13;;;;;;;0.10;0.10;;;14.50;99.90;;;;;;5046039;28;20543;-89
2023/08/05 05:32:39;;;;;;;0.10;0.10;;;14.60;99.90;;;;;;5049607;28;20191;-93
2023/08/05 05:35:05;;;;;;;0.10;0.10;;;14.70;99.90;;;;;;5046463;28;20466;-94
2023/08/05 05:37:30;;;;;;;0.10;0.10;;;14.80;99.90;;;;;;5054880;28;20565;-94
2023/08/05 05:39:56;;;;;;;0.10;0.10;;;14.90;99.90;;;;;;5068647;28;20247;-93
2023/08/05 05:42:21;;;;;;;0.10;0.10;;;14.80;99.90;;;;;;5035623;28;20180;-96
2023/08/05 05:44:52;;;;;;;0.10;0.10;;;14.90;99.90;;;;;;5042603;28;20183;-94
2023/08/05 05:47:20;;;;;;;0.10;0.10;;;14.90;99.90;;;;;;5038745;28;20226;-94
2023/08/05 05:49:46;;;;;;;0.10;0.10;;;15.00;99.90;;;;;;5051571;28;20444;-94
2023/08/05 05:52:15;;;;;;;0.10;0.10;;;15.00;99.90;;;;;;5043433;28;20950;-94
2023/08/05 05:54:41;;;;;;;0.10;0.10;;;15.00;99.90;;;;;;5051903;28;20194;-93
2023/08/05 05:57:06;;;;;;;0.10;0.10;;;15.10;99.90;;;;;;5054484;28;20441;-96
2023/08/05 05:59:32;;;;;;;0.10;0.10;;;15.20;99.90;;;;;;5052938;28;20642;-95
2023/08/05 06:01:57;;;;;;;0.10;0.10;;;15.30;99.90;;;;;;5047110;28;20178;-94
2023/08/05 06:04:27;;;;;;;0.10;0.10;;;15.40;99.90;;;;;;5053251;28;20249;-94
2023/08/05 06:06:54;;;;;;;0.10;0.10;;;15.60;99.90;;;;;;5054282;28;20543;-95
2023/08/05 06:09:20;;;;;;;0.20;0.20;;;15.70;99.90;;;;;;5057899;28;20483;-94
2023/08/05 06:11:46;;;;;;;0.10;0.10;;;15.80;99.90;;;;;;5049976;28;20498;-95
2023/08/05 06:14:11;;;;;;;0.10;0.10;;;15.80;99.90;;;;;;5052375;28;20433;-95
2023/08/05 06:16:37;;;;;;;0.10;0.10;;;15.80;99.90;;;;;;5054839;28;20207;-96
2023/08/05 06:19:02;;;;;;;0.10;0.10;;;15.90;99.90;;;;;;5055100;28;20183;-96
2023/08/05 06:21:28;;;;;;;0.10;0.10;;;15.90;99.90;;;;;;5053868;28;20642;-96
2023/08/05 06:23:53;;;;;;;0.10;0.10;;;15.90;99.90;;;;;;5044981;28;20194;-96
2023/08/05 06:26:19;;;;;;;0.10;0.10;;;15.90;99.90;;;;;;5046081;28;20213;-96
2023/08/05 06:28:44;;;;;;;0.10;0.10;;;15.90;99.90;;;;;;5050420;28;20675;-95
2023/08/05 06:31:10;;;;;;;0.10;0.10;;;15.90;99.90;;;;;;5057586;28;20194;-96
2023/08/05 06:33:35;;;;;;;0.10;0.10;;;15.90;99.90;;;;;;5045989;28;20189;-91
2023/08/05 06:36:01;;;;;;;0.10;0.10;;;15.90;99.90;;;;;;5074724;28;20639;-93
2023/08/05 06:38:26;;;;;;;0.10;0.10;;;16.00;99.90;;;;;;5050881;28;20928;-91
2023/08/05 06:40:52;;;;;;;0.10;0.10;;;16.10;99.90;;;;;;5044733;28;20195;-93
2023/08/05 06:43:21;;;;;;;0.10;0.10;;;16.00;99.90;;;;;;5055723;28;20651;-88
2023/08/05 06:45:47;;;;;;;0.10;0.10;;;16.00;99.90;;;;;;5071812;28;20193;-90
2023/08/05 06:48:13;;;;;;;0.10;0.10;;;15.90;99.90;;;;;;5045191;28;20489;-92
2023/08/05 06:50:39;;;;;;;0.10;0.10;;;16.00;99.90;;;;;;5047984;28;20187;-92
2023/08/05 06:53:04;;;;;;;0.10;0.10;;;16.00;99.90;;;;;;5038999;28;20244;-89
2023/08/05 06:55:30;;;;;;;0.10;0.10;;;16.10;99.90;;;;;;5048764;28;20944;-89
2023/08/05 06:57:56;;;;;;;0.07;0.00;;;16.20;99.90;;;;;;5048958;28;20225;-90
2023/08/05 07:00:21;;;;;;;0.10;0.10;;;16.40;99.90;;;;;;5048532;28;20288;-91
2023/08/05 07:02:47;;;;;;;0.00;0.00;;;16.40;99.90;;;;;;5041501;28;20961;-93
2023/08/05 07:05:12;;;;;;;0.10;0.10;;;16.40;99.90;;;;;;5052236;28;20190;-95
2023/08/05 07:07:38;;;;;;;0.10;0.10;;;16.60;99.90;;;;;;5043550;28;20264;-93
2023/08/05 07:10:07;;;;;;;0.10;0.00;;;16.70;99.90;;;;;;5050338;28;20698;-92
2023/08/05 07:12:36;;;;;;;0.10;0.10;;;17.00;99.90;;;;;;5037094;28;20179;-94
2023/08/05 07:15:03;;;;;;;0.10;0.10;;;17.20;99.90;;;;;;5048283;28;20804;-95
2023/08/05 07:17:29;;;;;;;0.10;0.10;;;17.30;99.90;;;;;;5051208;28;20438;-96
2023/08/05 07:19:54;;;;;;;0.10;0.00;;;17.30;99.90;;;;;;5055216;28;20440;-95
2023/08/05 07:22:20;;;;;;;0.10;0.10;;;17.60;99.90;;;;;;5073101;28;20194;-96
2023/08/05 07:24:46;;;;;;;0.10;0.00;;;17.90;99.90;;;;;;5039503;28;20222;-94
2023/08/05 07:27:12;;;;;;;0.10;0.00;;;18.10;99.90;;;;;;5046668;28;20526;-93
2023/08/05 07:29:38;;;;;;;0.10;0.07;;;17.70;99.90;;;;;;5042821;28;20194;-93
2023/08/05 07:32:04;;;;;;;0.10;0.10;;;17.60;99.90;;;;;;5035700;28;20518;-96
2023/08/05 07:34:31;;;;;;;0.10;0.10;;;17.70;99.90;;;;;;5048970;28;20205;-92
2023/08/05 07:36:58;;;;;;;0.10;0.10;;;17.80;99.90;;;;;;5047906;28;20549;-93
2023/08/05 07:39:25;;;;;;;0.10;0.00;;;18.10;99.90;;;;;;5049639;28;20660;-93
2023/08/05 07:41:51;;;;;;;0.10;0.00;;;18.10;99.90;;;;;;5039972;28;20454;-95
2023/08/05 07:44:16;;;;;;;0.10;0.00;;;18.00;99.90;;;;;;5049863;28;20961;-93
2023/08/05 07:46:42;;;;;;;0.10;0.00;;;18.00;99.90;;;;;;5059904;28;20339;-93
2023/08/05 07:49:08;;;;;;;0.10;0.00;;;17.90;99.90;;;;;;5052904;28;20222;-92
2023/08/05 07:51:34;;;;;;;0.10;0.00;;;17.90;99.90;;;;;;5048587;28;20694;-94
2023/08/05 07:54:00;;;;;;;0.10;0.10;;;17.80;99.90;;;;;;5058895;28;20241;-95
2023/08/05 07:56:27;;;;;;;0.10;0.00;;;17.70;99.90;;;;;;5050916;28;20729;-94
2023/08/05 07:58:52;;;;;;;0.10;0.10;;;17.90;99.90;;;;;;5042604;28;20457;-94
2023/08/05 08:01:22;;;;;;;0.00;0.00;;;17.90;99.90;;;;;;5052245;28;20558;-94
2023/08/05 08:03:53;;;;;;;0.10;0.00;;;18.10;99.90;;;;;;5034439;28;20210;-93
2023/08/05 08:06:20;;;;;;;0.10;0.00;;;18.10;99.90;;;;;;5042100;28;20461;-92
2023/08/05 08:08:46;;;;;;;0.10;0.00;;;18.20;99.90;;;;;;5050921;28;20575;-95
2023/08/05 08:11:12;;;;;;;0.10;0.10;;;18.10;99.90;;;;;;5037901;28;20450;-93
2023/08/05 08:13:39;;;;;;;0.10;0.00;;;18.20;99.90;;;;;;5050274;28;20435;-92
2023/08/05 08:16:05;;;;;;;0.00;0.00;;;18.20;99.90;;;;;;5044323;28;20451;-94
2023/08/05 08:18:31;;;;;;;0.10;0.10;;;18.10;99.90;;;;;;5045259;28;20951;-95
2023/08/05 08:20:56;;;;;;;0.10;0.10;;;18.10;99.90;;;;;;5048152;28;20499;-96
2023/08/05 08:23:22;;;;;;;0.10;0.00;;;17.90;99.90;;;;;;5057837;28;20611;-95
2023/08/05 08:25:48;;;;;;;0.10;0.00;;;18.00;99.90;;;;;;5071215;28;20545;-96
2023/08/05 08:28:14;;;;;;;0.10;0.10;;;18.00;99.90;;;;;;5089194;28;20495;-96
2023/08/05 08:30:49;;;;;;;0.10;0.00;;;18.20;99.90;;;;;;5061943;28;20187;-95
2023/08/05 08:33:15;;;;;;;0.10;0.00;;;18.10;99.90;;;;;;5036183;28;20185;-96
2023/08/05 08:35:40;;;;;;;0.10;0.00;;;18.20;99.90;;;;;;5063548;28;20520;-95
2023/08/05 08:38:06;;;;;;;0.10;0.00;;;18.30;99.90;;;;;;5050564;28;20592;-95
2023/08/05 08:40:32;;;;;;;0.10;0.00;;;18.30;99.90;;;;;;5051806;28;20194;-95
2023/08/05 08:43:00;;;;;;;0.10;0.00;;;18.50;99.90;;;;;;5051236;28;20179;-94
2023/08/05 08:45:32;;;;;;;0.10;0.00;;;18.40;99.90;;;;;;5038969;28;20518;-94
2023/08/05 08:48:00;;;;;;;0.10;0.00;;;18.30;99.90;;;;;;5055563;28;20515;-93
2023/08/05 08:50:26;;;;;;;0.00;0.00;;;18.30;99.90;;;;;;5076498;28;20434;-92
2023/08/05 08:52:57;;;;;;;0.10;0.00;;;18.70;99.90;;;;;;5041905;28;20955;-92
2023/08/05 08:55:25;;;;;;;0.10;0.10;;;18.80;99.90;;;;;;5036382;28;20453;-91
2023/08/05 08:57:51;;;;;;;0.10;0.00;;;18.80;99.90;;;;;;5044567;28;20744;-93
2023/08/05 09:00:16;;;;;;;0.10;0.00;;;18.80;99.90;;;;;;5043956;28;20498;-96
2023/08/05 09:02:42;;;;;;;0.00;0.00;;;18.90;99.90;;;;;;5059332;28;20247;-95
2023/08/05 09:05:08;;;;;;;0.10;0.10;;;18.80;99.90;;;;;;5054956;28;20213;-95
2023/08/05 09:07:35;;;;;;;0.10;0.00;;;19.20;99.90;;;;;;5069270;28;20834;-94
2023/08/05 09:10:05;;;;;;;0.10;0.00;;;19.80;99.90;;;;;;5048148;28;20240;-93
2023/08/05 09:12:31;;;;;;;0.10;0.00;;;20.30;99.90;;;;;;5064648;28;20948;-93
2023/08/05 09:14:57;;;;;;;0.10;0.00;;;20.50;99.90;;;;;;5047932;28;20445;-92
2023/08/05 09:17:23;;;;;;;0.10;0.00;;;20.20;99.90;;;;;;5050924;28;20861;-89
2023/08/05 09:19:48;;;;;;;0.10;0.00;;;19.80;99.90;;;;;;5069339;28;20190;-91
2023/08/05 09:22:14;;;;;;;0.10;0.00;;;19.50;99.90;;;;;;5077241;28;20186;-92
2023/08/05 09:24:39;;;;;;;0.10;0.10;;;19.40;99.90;;;;;;5041369;28;20244;-87
2023/08/05 09:27:05;;;;;;;0.10;0.00;;;19.00;99.90;;;;;;5041952;28;20198;-88
2023/08/05 09:29:31;;;;;;;0.00;0.00;;;19.00;99.90;;;;;;5043939;28;20628;-90
2023/08/05 09:32:01;;;;;;;0.00;0.00;;;19.10;99.90;;;;;;5045478;28;20456;-89
2023/08/05 09:34:35;;;;;;;0.07;0.00;;;19.40;99.90;;;;;;5046355;28;20657;-91
2023/08/05 09:37:04;;;;;;;0.00;0.00;;;19.70;99.90;;;;;;5047853;28;20433;-92
2023/08/05 09:39:50;;;;;;;0.10;0.00;;;20.20;99.90;;;;;;5081758;28;21035;-91
2023/08/05 09:42:25;;;;;;;0.10;0.00;;;21.20;99.90;;;;;;5058949;28;20969;-91
2023/08/05 09:44:57;;;;;;;0.10;0.00;;;21.20;99.90;;;;;;5046800;28;20452;-90
2023/08/05 09:47:28;;;;;;;0.10;0.00;;;20.30;99.90;;;;;;5039507;28;20519;-94
2023/08/05 09:49:55;;;;;;;0.10;0.00;;;20.00;99.90;;;;;;5049540;28;20448;-92
2023/08/05 09:52:23;;;;;;;0.10;0.00;;;19.70;99.90;;;;;;5047507;28;20507;-92
2023/08/05 09:54:59;;;;;;;0.10;0.00;;;19.50;99.90;;;;;;5069418;28;20482;-91
2023/08/05 09:57:26;;;;;;;0.10;0.10;;;19.60;99.90;;;;;;5079741;28;21015;-92
2023/08/05 09:59:53;;;;;;;0.10;0.10;;;19.50;99.90;;;;;;5046197;28;20448;-89
2023/08/05 10:02:27;;;;;;;0.10;0.00;;;19.50;99.90;;;;;;5041624;28;20438;-86
2023/08/05 10:04:54;;;;;;;0.10;0.00;;;19.30;99.90;;;;;;5063302;28;21973;-89
2023/08/05 10:07:24;;;;;;;0.10;0.00;;;19.40;99.90;;;;;;5038379;28;20983;-92
2023/08/05 10:09:50;;;;;;;0.10;0.00;;;19.50;99.90;;;;;;5053016;28;20444;-92
2023/08/05 10:12:25;;;;;;;0.10;0.00;;;19.50;99.90;;;;;;5053861;28;20436;-94
2023/08/05 10:14:54;;;;;;;0.10;0.00;;;19.50;99.90;;;;;;5052856;28;20443;-91
2023/08/05 10:17:21;;;;;;;0.10;0.00;;;19.30;99.90;;;;;;5034763;28;20440;-92
2023/08/05 10:19:50;;;;;;;0.10;0.00;;;19.20;99.90;;;;;;5072121;28;20469;-91
2023/08/05 10:22:22;;;;;;;0.10;0.00;;;19.30;99.90;;;;;;5043872;28;20440;-90
2023/08/05 10:24:52;;;;;;;0.10;0.00;;;19.30;99.90;;;;;;5058018;28;21055;-91
2023/08/05 10:27:31;;;;;;;0.10;0.00;;;19.60;99.90;;;;;;5067075;28;20523;-89
2023/08/05 10:29:57;;;;;;;0.10;0.00;;;19.60;99.90;;;;;;5041970;28;20461;-93
2023/08/05 10:32:29;;;;;;;0.10;0.00;;;19.90;99.90;;;;;;5061935;28;20955;-94
2023/08/05 10:35:25;;;;;;;0.10;0.00;;;19.80;99.90;;;;;;5060453;28;20191;-91
2023/08/05 10:38:06;;;;;;;0.10;0.00;;;20.30;99.90;;;;;;5041389;28;20432;-90
2023/08/05 10:40:44;;;;;;;0.10;0.00;;;20.20;99.90;;;;;;5059953;28;20453;-96
2023/08/05 10:43:10;;;;;;;0.10;0.00;;;20.40;99.90;;;;;;5053713;28;20441;-94
2023/08/05 10:45:41;;;;;;;0.10;0.00;;;20.60;99.90;;;;;;5051444;28;20449;-96
2023/08/05 10:48:08;;;;;;;0.07;0.00;;;21.00;99.90;;;;;;5052564;28;21010;-96
2023/08/05 10:50:38;;;;;;;0.10;0.00;;;21.50;99.90;;;;;;5047623;28;20469;-96
2023/08/05 10:53:08;;;;;;;0.10;0.00;;;21.20;99.90;;;;;;5064311;28;20523;-96
2023/08/05 10:55:50;;;;;;;0.10;0.00;;;21.30;99.90;;;;;;5054107;28;21306;-95
2023/08/05 10:58:22;;;;;;;0.10;0.00;;;21.50;99.90;;;;;;5050790;28;21177;-96
2023/08/05 11:01:05;;;;;;;0.10;0.00;;;21.90;99.90;;;;;;5051138;28;20451;-94
2023/08/05 11:03:44;;;;;;;0.10;0.00;;;22.00;99.90;;;;;;5045735;28;20449;-94
2023/08/05 11:06:12;;;;;;;0.10;0.00;;;22.90;99.90;;;;;;5042244;28;20818;-91
2023/08/05 11:08:39;;;;;;;0.10;0.00;;;22.60;99.90;;;;;;5057713;28;20503;-93
2023/08/05 11:11:06;;;;;;;0.10;0.00;;;22.80;99.90;;;;;;5045968;28;20437;-96
2023/08/05 11:13:37;;;;;;;0.10;0.00;;;23.90;99.90;;;;;;5056012;28;20447;-95
2023/08/05 11:16:09;;;;;;;0.10;0.00;;;24.80;99.90;;;;;;5051014;28;20794;-95
2023/08/05 11:18:35;;;;;;;0.10;0.00;;;25.20;99.90;;;;;;5054862;28;20459;-96
2023/08/05 11:21:04;;;;;;;0.10;0.00;;;25.20;99.90;;;;;;5045469;28;20953;-96
2023/08/05 11:23:29;;;;;;;0.10;0.00;;;25.70;99.90;;;;;;5063444;28;20444;-96
2023/08/05 11:25:59;;;;;;;0.10;0.00;;;26.10;99.90;;;;;;5048034;28;20948;-96
2023/08/05 11:28:24;;;;;;;0.10;0.00;;;25.50;99.90;;;;;;5042340;28;20216;-94
2023/08/05 11:30:50;;;;;;;0.10;0.00;;;25.80;99.90;;;;;;5050590;28;20552;-96
2023/08/05 11:33:16;;;;;;;0.10;0.00;;;26.20;99.90;;;;;;5047627;28;20184;-96
2023/08/05 11:35:46;;;;;;;0.10;0.00;;;25.70;99.90;;;;;;5041682;28;20182;-96
2023/08/05 11:38:18;;;;;;;0.10;0.00;;;26.40;99.90;;;;;;5043010;28;20436;-96
2023/08/05 11:40:46;;;;;;;0.10;0.00;;;26.30;99.90;;;;;;5041288;28;21101;-95
2023/08/05 11:43:14;;;;;;;0.10;0.00;;;26.00;99.90;;;;;;5077055;28;20434;-95
2023/08/05 11:45:40;;;;;;;0.10;0.00;;;25.50;99.90;;;;;;5048826;28;20499;-96
2023/08/05 11:48:15;;;;;;;0.10;0.00;;;25.70;99.90;;;;;;5046950;28;20508;-96
2023/08/05 11:50:41;;;;;;;0.10;0.00;;;26.50;99.90;;;;;;5057199;28;20445;-94
2023/08/05 11:53:07;;;;;;;0.10;0.00;;;26.60;99.90;;;;;;5078077;28;20764;-96
2023/08/05 11:55:34;;;;;;;0.10;0.00;;;26.80;99.90;;;;;;5054936;28;20213;-96
2023/08/05 11:58:02;;;;;;;0.10;0.00;;;27.00;99.90;;;;;;5052362;28;20191;-93
2023/08/05 12:00:28;;;;;;;0.10;0.00;;;27.80;99.90;;;;;;5065577;28;20532;-94
2023/08/05 12:02:53;;;;;;;0.10;0.00;;;27.30;99.90;;;;;;5047966;28;20533;-95
2023/08/05 12:05:19;;;;;;;0.10;0.00;;;27.40;99.90;;;;;;5049207;28;20194;-89
2023/08/05 12:07:44;;;;;;;0.10;0.00;;;25.60;99.90;;;;;;5044671;28;20670;-93
2023/08/05 12:10:16;;;;;;;0.10;0.00;;;25.80;99.90;;;;;;5046973;28;20208;-95
2023/08/05 12:12:44;;;;;;;0.10;0.00;;;26.00;99.90;;;;;;5051018;28;20198;-94
2023/08/05 12:15:24;;;;;;;0.10;0.00;;;26.70;99.90;;;;;;5049965;28;20461;-94
2023/08/05 12:18:04;;;;;;;0.10;0.00;;;26.40;99.90;;;;;;5051532;28;20453;-95
2023/08/05 12:20:34;;;;;;;0.10;0.00;;;25.40;99.90;;;;;;5062492;28;20816;-92
2023/08/05 12:23:00;;;;;;;0.10;0.00;;;23.80;99.90;;;;;;5042678;28;20451;-95
2023/08/05 12:25:26;;;;;;;0.10;0.00;;;23.10;99.90;;;;;;5043732;28;20829;-95
2023/08/05 12:27:52;;;;;;;0.10;0.00;;;22.60;99.90;;;;;;5061865;28;20210;-95
2023/08/05 12:30:18;;;;;;;0.10;0.00;;;22.50;99.90;;;;;;5047656;28;20464;-95
2023/08/05 12:32:44;;;;;;;0.10;0.00;;;22.50;99.90;;;;;;5059831;28;20484;-96
2023/08/05 12:35:10;;;;;;;0.10;0.00;;;22.40;99.90;;;;;;5062719;28;20186;-96
2023/08/05 12:37:37;;;;;;;0.10;0.00;;;22.30;99.90;;;;;;5065648;28;20183;-94
2023/08/05 12:40:04;;;;;;;0.10;0.00;;;22.60;99.90;;;;;;5045852;28;20441;-96
2023/08/05 12:42:30;;;;;;;0.10;0.00;;;22.50;99.90;;;;;;5047675;28;20459;-93
2023/08/05 12:44:59;;;;;;;0.10;0.00;;;22.70;99.90;;;;;;5066312;28;20524;-93
2023/08/05 12:47:24;;;;;;;0.10;0.00;;;22.80;99.90;;;;;;5034314;28;20485;-94